createdAt,value
2022-08-02T00:01:02.680Z,20.90
2022-08-02T00:03:33.150Z,20.90
2022-08-02T00:06:00.966Z,20.90
2022-08-02T00:08:30.844Z,20.80
2022-08-02T00:10:58.544Z,20.80
2022-08-02T00:13:25.813Z,20.80
2022-08-02T00:15:53.495Z,20.70
2022-08-02T00:18:21.400Z,20.70
2022-08-02T00:20:48.684Z,20.70
2022-08-02T00:23:18.592Z,20.60
2022-08-02T00:25:54.370Z,20.70
2022-08-02T00:28:27.984Z,20.80
2022-08-02T00:30:57.407Z,20.90
2022-08-02T00:34:05.584Z,20.80
2022-08-02T00:36:13.208Z,20.70
2022-08-02T00:38:41.044Z,20.70
2022-08-02T00:41:24.016Z,20.70
2022-08-02T00:43:53.137Z,20.80
2022-08-02T00:46:20.931Z,20.80
2022-08-02T00:48:48.582Z,20.70
2022-08-02T00:51:17.766Z,20.60
2022-08-02T00:53:47.451Z,20.60
2022-08-02T00:56:14.701Z,20.50
2022-08-02T00:58:44.755Z,20.50
2022-08-02T01:01:12.592Z,20.50
2022-08-02T01:03:40.332Z,20.50
2022-08-02T01:06:11.651Z,20.50
2022-08-02T01:08:44.421Z,20.30
2022-08-02T01:11:11.867Z,20.20
2022-08-02T01:13:40.089Z,20.20
2022-08-02T01:16:22.612Z,20.20
2022-08-02T01:18:59.115Z,20.20
2022-08-02T01:21:35.309Z,20.20
2022-08-02T01:24:43.687Z,20.20
2022-08-02T01:27:29.189Z,20.20
2022-08-02T01:30:00.584Z,20.20
2022-08-02T01:32:46.811Z,20.20
2022-08-02T01:35:24.937Z,20.20
2022-08-02T01:37:58.819Z,20.20
2022-08-02T01:40:34.738Z,20.20
2022-08-02T01:43:06.683Z,20.10
2022-08-02T01:45:44.507Z,20.20
2022-08-02T01:48:13.065Z,20.20
2022-08-02T01:50:42.502Z,20.30
2022-08-02T01:53:14.076Z,20.20
2022-08-02T01:55:58.460Z,20.20
2022-08-02T01:58:33.929Z,20.30
2022-08-02T02:01:03.600Z,20.50
2022-08-02T02:03:33.679Z,20.50
2022-08-02T02:06:03.502Z,20.50
2022-08-02T02:08:35.870Z,20.50
2022-08-02T02:12:06.392Z,20.50
2022-08-02T02:13:53.169Z,20.40
2022-08-02T02:16:24.213Z,20.50
2022-08-02T02:18:53.090Z,20.50
2022-08-02T02:21:23.513Z,20.50
2022-08-02T02:23:51.100Z,20.50
2022-08-02T02:26:20.852Z,20.50
2022-08-02T02:29:04.261Z,20.40
2022-08-02T02:31:44.002Z,20.30
2022-08-02T02:34:20.881Z,20.30
2022-08-02T02:36:51.650Z,20.30
2022-08-02T02:39:24.497Z,20.30
2022-08-02T02:41:53.174Z,20.30
2022-08-02T02:44:23.072Z,20.20
2022-08-02T02:46:54.975Z,20.10
2022-08-02T02:49:24.750Z,20.10
2022-08-02T02:51:53.575Z,20.10
2022-08-02T02:54:32.210Z,20.10
2022-08-02T02:57:02.342Z,20.10
2022-08-02T02:59:30.763Z,20.10
2022-08-02T03:01:59.150Z,20.10
2022-08-02T03:04:55.444Z,20.10
2022-08-02T03:07:18.709Z,20.10
2022-08-02T03:09:53.762Z,20.20
2022-08-02T03:12:28.739Z,20.20
2022-08-02T03:15:06.180Z,20.30
2022-08-02T03:17:45.622Z,20.20
2022-08-02T03:20:18.485Z,20.10
2022-08-02T03:22:47.091Z,20.20
2022-08-02T03:25:21.075Z,20.20
2022-08-02T03:27:48.443Z,20.20
2022-08-02T03:30:18.137Z,20.10
2022-08-02T03:32:49.489Z,20.20
2022-08-02T03:35:24.215Z,20.10
2022-08-02T03:37:56.043Z,19.90
2022-08-02T03:40:24.686Z,19.80
2022-08-02T03:42:52.722Z,19.80
2022-08-02T03:45:20.918Z,19.80
2022-08-02T03:47:49.032Z,19.80
2022-08-02T03:50:17.341Z,19.80
2022-08-02T03:52:45.955Z,19.90
2022-08-02T03:55:13.597Z,19.90
2022-08-02T03:57:43.313Z,20.00
2022-08-02T04:00:17.868Z,20.00
2022-08-02T04:02:45.166Z,20.00
2022-08-02T04:05:13.090Z,20.00
2022-08-02T04:08:02.643Z,19.90
2022-08-02T04:10:28.049Z,19.90
2022-08-02T04:12:56.661Z,19.80
2022-08-02T04:15:25.151Z,19.90
2022-08-02T04:18:02.895Z,20.00
2022-08-02T04:20:36.060Z,20.00
2022-08-02T04:23:09.957Z,20.00
2022-08-02T04:25:40.583Z,20.00
2022-08-02T04:28:17.055Z,20.10
2022-08-02T04:30:52.537Z,20.20
2022-08-02T04:33:19.918Z,20.20
2022-08-02T04:35:50.083Z,20.20
2022-08-02T04:38:17.714Z,20.20
2022-08-02T04:40:55.860Z,20.20
2022-08-02T04:43:23.692Z,20.30
2022-08-02T04:45:56.974Z,20.30
2022-08-02T04:48:24.552Z,20.30
2022-08-02T04:50:52.247Z,20.40
2022-08-02T04:53:19.730Z,20.40
2022-08-02T04:55:47.290Z,20.40
2022-08-02T04:58:40.004Z,20.50
2022-08-02T05:01:04.502Z,20.60
2022-08-02T05:03:31.796Z,20.70
2022-08-02T05:06:00.663Z,20.70
2022-08-02T05:08:28.126Z,20.80
2022-08-02T05:10:55.432Z,20.90
2022-08-02T05:13:23.121Z,21.00
2022-08-02T05:15:50.622Z,21.00
2022-08-02T05:18:18.098Z,21.00
2022-08-02T05:20:45.825Z,21.10
2022-08-02T05:23:13.518Z,21.10
2022-08-02T05:25:40.760Z,21.00
2022-08-02T05:28:11.437Z,21.00
2022-08-02T05:30:42.434Z,21.00
2022-08-02T05:33:11.110Z,21.10
2022-08-02T05:35:40.520Z,21.10
2022-08-02T05:38:10.229Z,21.20
2022-08-02T05:40:37.684Z,21.20
2022-08-02T05:43:25.078Z,21.20
2022-08-02T05:45:53.605Z,21.20
2022-08-02T05:48:26.539Z,21.30
2022-08-02T05:51:08.994Z,21.40
2022-08-02T05:54:03.619Z,21.30
2022-08-02T05:56:37.934Z,21.40
2022-08-02T05:59:37.899Z,21.40
2022-08-02T06:02:33.758Z,21.40
2022-08-02T06:05:15.512Z,21.30
2022-08-02T06:07:44.675Z,21.50
2022-08-02T06:10:14.984Z,21.70
2022-08-02T06:12:51.979Z,21.60
2022-08-02T06:15:20.037Z,21.80
2022-08-02T06:17:48.123Z,21.90
2022-08-02T06:20:20.278Z,22.10
2022-08-02T06:22:48.545Z,22.30
2022-08-02T06:25:49.778Z,22.50
2022-08-02T06:28:10.652Z,22.60
2022-08-02T06:30:39.234Z,22.70
2022-08-02T06:33:06.427Z,22.60
2022-08-02T06:36:00.982Z,22.70
2022-08-02T06:38:34.315Z,22.80
2022-08-02T06:41:06.181Z,23.00
2022-08-02T06:43:56.554Z,23.00
2022-08-02T06:47:10.446Z,23.00
2022-08-02T06:49:11.944Z,23.30
2022-08-02T06:51:39.291Z,23.40
2022-08-02T06:54:07.179Z,23.60
2022-08-02T06:56:34.745Z,23.80
2022-08-02T06:59:05.842Z,23.90
2022-08-02T07:01:38.694Z,24.10
2022-08-02T07:04:06.531Z,24.10
2022-08-02T07:06:34.343Z,24.20
2022-08-02T07:09:20.184Z,24.60
2022-08-02T07:11:48.490Z,24.80
2022-08-02T07:14:16.233Z,25.10
2022-08-02T07:16:43.509Z,25.10
2022-08-02T07:19:13.917Z,25.10
2022-08-02T07:21:56.845Z,25.10
2022-08-02T07:24:27.231Z,25.10
2022-08-02T07:27:10.350Z,25.30
2022-08-02T07:29:46.601Z,25.30
2022-08-02T07:32:19.185Z,25.40
2022-08-02T07:34:51.228Z,25.50
2022-08-02T07:37:54.115Z,25.80
2022-08-02T07:40:20.988Z,26.20
2022-08-02T07:42:56.454Z,26.30
2022-08-02T07:45:27.578Z,26.40
2022-08-02T07:48:00.570Z,26.30
2022-08-02T07:50:28.578Z,26.40
2022-08-02T07:52:58.377Z,26.50
2022-08-02T07:55:39.055Z,26.70
2022-08-02T07:58:12.763Z,26.80
2022-08-02T08:00:47.186Z,26.90
2022-08-02T08:03:14.381Z,27.10
2022-08-02T08:05:42.180Z,27.30
2022-08-02T08:08:15.028Z,27.60
2022-08-02T08:10:44.236Z,27.60
2022-08-02T08:13:11.629Z,27.90
2022-08-02T08:15:38.979Z,28.20
2022-08-02T08:18:06.438Z,28.30
2022-08-02T08:20:33.778Z,28.60
2022-08-02T08:23:01.374Z,28.80
2022-08-02T08:25:28.694Z,29.20
2022-08-02T08:27:59.268Z,29.30
2022-08-02T08:30:26.960Z,29.40
2022-08-02T08:32:58.967Z,29.30
2022-08-02T08:35:26.287Z,29.30
2022-08-02T08:37:56.069Z,29.50
2022-08-02T08:40:25.544Z,29.70
2022-08-02T08:42:52.924Z,29.80
2022-08-02T08:45:20.177Z,29.90
2022-08-02T08:47:53.188Z,30.00
2022-08-02T08:50:25.400Z,29.80
2022-08-02T08:53:03.667Z,29.70
2022-08-02T08:55:35.232Z,29.80
2022-08-02T08:58:04.565Z,29.70
2022-08-02T09:00:35.555Z,29.60
2022-08-02T09:03:06.369Z,29.80
2022-08-02T09:05:43.392Z,29.80
2022-08-02T09:08:16.376Z,29.80
2022-08-02T09:10:46.288Z,29.80
2022-08-02T09:13:45.558Z,29.80
2022-08-02T09:16:14.636Z,29.70
2022-08-02T09:18:45.168Z,29.70
2022-08-02T09:21:14.835Z,29.80
2022-08-02T09:23:51.567Z,30.00
2022-08-02T09:26:23.767Z,30.30
2022-08-02T09:28:53.077Z,30.80
2022-08-02T09:31:22.892Z,30.90
2022-08-02T09:34:00.719Z,30.80
2022-08-02T09:36:41.127Z,30.30
2022-08-02T09:39:11.402Z,30.10
2022-08-02T09:41:43.366Z,30.00
2022-08-02T09:44:15.947Z,30.20
2022-08-02T09:46:45.902Z,30.00
2022-08-02T09:49:21.857Z,30.10
2022-08-02T09:51:53.415Z,30.10
2022-08-02T09:54:33.010Z,30.20
2022-08-02T09:57:02.402Z,30.70
2022-08-02T09:59:30.061Z,30.90
2022-08-02T10:02:02.627Z,30.80
2022-08-02T10:04:34.439Z,30.70
2022-08-02T10:07:23.091Z,30.90
2022-08-02T10:09:51.804Z,31.10
2022-08-02T10:12:23.625Z,31.30
2022-08-02T10:14:54.415Z,31.40
2022-08-02T10:17:25.273Z,31.30
2022-08-02T10:20:02.212Z,31.30
2022-08-02T10:22:34.012Z,31.40
2022-08-02T10:25:04.343Z,31.60
2022-08-02T10:27:55.166Z,31.70
2022-08-02T10:30:24.485Z,31.70
2022-08-02T10:32:55.951Z,31.80
2022-08-02T10:35:26.206Z,31.90
2022-08-02T10:38:03.891Z,32.20
2022-08-02T10:40:49.132Z,32.20
2022-08-02T10:43:34.277Z,32.20
2022-08-02T10:46:36.099Z,32.30
2022-08-02T10:49:37.878Z,32.10
2022-08-02T10:51:59.516Z,31.80
2022-08-02T10:54:35.075Z,31.30
2022-08-02T10:57:04.913Z,31.10
2022-08-02T10:59:36.968Z,31.10
2022-08-02T11:02:06.864Z,31.10
2022-08-02T11:04:40.125Z,31.30
2022-08-02T11:07:09.666Z,31.20
2022-08-02T11:09:40.090Z,31.40
2022-08-02T11:12:15.042Z,31.50
2022-08-02T11:14:59.761Z,31.50
2022-08-02T11:17:28.989Z,31.60
2022-08-02T11:20:08.894Z,31.70
2022-08-02T11:22:36.787Z,32.20
2022-08-02T11:26:03.261Z,32.40
2022-08-02T11:28:26.893Z,32.40
2022-08-02T11:31:01.537Z,32.50
2022-08-02T11:33:32.314Z,32.80
2022-08-02T11:36:07.406Z,32.90
2022-08-02T11:38:34.854Z,33.10
2022-08-02T11:41:06.191Z,33.00
2022-08-02T11:43:37.824Z,32.80
2022-08-02T11:46:13.346Z,32.50
2022-08-02T11:48:44.654Z,32.30
2022-08-02T11:51:16.906Z,32.30
2022-08-02T11:53:58.407Z,32.50
2022-08-02T11:56:42.840Z,32.90
2022-08-02T11:59:12.966Z,33.00
2022-08-02T12:01:45.466Z,33.00
2022-08-02T12:04:22.667Z,33.30
2022-08-02T12:06:59.215Z,33.20
2022-08-02T12:09:31.472Z,33.30
2022-08-02T12:12:00.927Z,33.30
2022-08-02T12:14:33.401Z,33.20
2022-08-02T12:17:19.140Z,33.30
2022-08-02T12:19:49.332Z,33.20
2022-08-02T12:22:29.944Z,33.20
2022-08-02T12:24:58.549Z,33.10
2022-08-02T12:27:43.503Z,33.00
2022-08-02T12:30:16.231Z,33.00
2022-08-02T12:32:47.374Z,32.70
2022-08-02T12:35:26.539Z,32.80
2022-08-02T12:37:54.374Z,32.70
2022-08-02T12:40:34.133Z,32.50
2022-08-02T12:43:06.533Z,32.60
2022-08-02T12:45:56.014Z,32.50
2022-08-02T12:48:52.342Z,32.20
2022-08-02T12:51:56.568Z,32.30
2022-08-02T12:54:32.119Z,32.30
2022-08-02T12:57:19.913Z,32.40
2022-08-02T12:59:55.155Z,32.50
2022-08-02T13:02:22.588Z,32.30
2022-08-02T13:04:51.005Z,32.40
2022-08-02T13:07:19.289Z,32.40
2022-08-02T13:09:48.590Z,32.40
2022-08-02T13:12:18.645Z,32.60
2022-08-02T13:14:50.545Z,32.70
2022-08-02T13:17:17.874Z,32.90
2022-08-02T13:19:45.143Z,32.90
2022-08-02T13:22:18.622Z,32.90
2022-08-02T13:24:55.924Z,32.90
2022-08-02T13:27:27.357Z,33.10
2022-08-02T13:29:56.395Z,33.10
2022-08-02T13:32:25.347Z,33.00
2022-08-02T13:34:53.023Z,32.70
2022-08-02T13:37:20.801Z,32.70
2022-08-02T13:40:06.016Z,32.60
2022-08-02T13:42:35.466Z,32.70
2022-08-02T13:45:12.565Z,32.80
2022-08-02T13:48:04.527Z,32.90
2022-08-02T13:50:35.068Z,32.70
2022-08-02T13:53:02.447Z,32.70
2022-08-02T13:55:29.826Z,32.80
2022-08-02T13:57:57.751Z,32.90
2022-08-02T14:00:34.646Z,32.80
2022-08-02T14:03:07.730Z,32.80
2022-08-02T14:05:48.235Z,32.90
2022-08-02T14:08:23.580Z,32.60
2022-08-02T14:10:51.975Z,32.60
2022-08-02T14:13:19.865Z,32.60
2022-08-02T14:15:47.517Z,32.50
2022-08-02T14:18:15.409Z,32.40
2022-08-02T14:20:47.507Z,32.30
2022-08-02T14:23:17.787Z,32.30
2022-08-02T14:25:45.073Z,32.40
2022-08-02T14:28:12.376Z,32.30
2022-08-02T14:30:39.865Z,32.20
2022-08-02T14:33:07.237Z,32.10
2022-08-02T14:35:35.018Z,32.10
2022-08-02T14:38:02.307Z,32.10
2022-08-02T14:40:31.806Z,32.10
2022-08-02T14:43:03.243Z,32.10
2022-08-02T14:45:40.503Z,32.30
2022-08-02T14:48:10.659Z,32.30
2022-08-02T14:50:38.494Z,32.20
2022-08-02T14:53:06.216Z,32.00
2022-08-02T14:55:40.864Z,32.00
2022-08-02T14:58:13.859Z,31.90
2022-08-02T15:00:42.104Z,31.80
2022-08-02T15:03:12.317Z,31.70
2022-08-02T15:05:40.161Z,31.70
2022-08-02T15:08:08.040Z,31.70
2022-08-02T15:10:35.895Z,31.50
2022-08-02T15:13:03.836Z,31.30
2022-08-02T15:15:31.158Z,31.10
2022-08-02T15:17:58.637Z,31.00
2022-08-02T15:20:30.433Z,31.00
2022-08-02T15:23:04.209Z,31.10
2022-08-02T15:25:31.518Z,31.20
2022-08-02T15:27:58.766Z,31.20
2022-08-02T15:30:26.155Z,31.20
2022-08-02T15:32:56.395Z,31.20
2022-08-02T15:35:23.943Z,31.00
2022-08-02T15:37:54.279Z,31.00
2022-08-02T15:40:23.141Z,31.00
2022-08-02T15:42:53.038Z,30.90
2022-08-02T15:45:22.708Z,30.90
2022-08-02T15:47:50.807Z,30.90
2022-08-02T15:50:20.999Z,31.00
2022-08-02T15:52:48.285Z,30.90
2022-08-02T15:55:15.852Z,30.90
2022-08-02T15:57:43.682Z,30.90
2022-08-02T16:00:18.004Z,30.90
2022-08-02T16:02:48.933Z,30.90
2022-08-02T16:05:18.191Z,30.90
2022-08-02T16:07:46.222Z,30.80
2022-08-02T16:10:15.032Z,30.80
2022-08-02T16:12:45.329Z,30.80
2022-08-02T16:15:14.982Z,30.70
2022-08-02T16:17:51.563Z,30.70
2022-08-02T16:20:22.246Z,30.60
2022-08-02T16:22:52.293Z,30.60
2022-08-02T16:25:22.133Z,30.60
2022-08-02T16:28:00.191Z,30.50
2022-08-02T16:30:36.709Z,30.50
2022-08-02T16:33:06.428Z,30.60
2022-08-02T16:35:34.917Z,30.50
2022-08-02T16:38:04.928Z,30.40
2022-08-02T16:40:34.289Z,30.30
2022-08-02T16:43:01.989Z,30.30
2022-08-02T16:45:36.317Z,30.30
2022-08-02T16:48:05.375Z,30.30
2022-08-02T16:50:33.440Z,30.30
2022-08-02T16:53:07.101Z,30.30
2022-08-02T16:55:35.023Z,30.40
2022-08-02T16:58:09.768Z,30.30
2022-08-02T17:00:38.196Z,30.30
2022-08-02T17:03:16.552Z,30.30
2022-08-02T17:05:56.690Z,30.20
2022-08-02T17:08:28.800Z,30.20
2022-08-02T17:11:03.106Z,30.10
2022-08-02T17:13:52.110Z,30.20
2022-08-02T17:16:26.096Z,30.20
2022-08-02T17:18:59.842Z,30.10
2022-08-02T17:21:31.844Z,30.00
2022-08-02T17:24:07.901Z,30.10
2022-08-02T17:26:41.121Z,30.00
2022-08-02T17:29:15.685Z,30.00
2022-08-02T17:32:05.325Z,30.10
2022-08-02T17:34:39.249Z,30.00
2022-08-02T17:37:09.429Z,30.00
2022-08-02T17:39:44.305Z,30.00
2022-08-02T17:42:24.722Z,29.90
2022-08-02T17:44:54.287Z,29.90
2022-08-02T17:47:22.455Z,29.80
2022-08-02T17:49:52.869Z,29.70
2022-08-02T17:52:50.833Z,29.60
2022-08-02T17:55:21.069Z,29.60
2022-08-02T17:57:56.966Z,29.60
2022-08-02T18:00:36.200Z,29.70
2022-08-02T18:03:08.039Z,29.60
2022-08-02T18:05:41.656Z,29.70
2022-08-02T18:08:23.737Z,29.80
2022-08-02T18:10:54.772Z,29.70
2022-08-02T18:13:25.291Z,29.70
2022-08-02T18:15:57.392Z,29.70
2022-08-02T18:18:29.567Z,29.70
2022-08-02T18:21:16.045Z,29.60
2022-08-02T18:26:38.176Z,29.70
2022-08-02T18:29:06.654Z,29.60
2022-08-02T18:31:39.534Z,29.60
2022-08-02T18:34:09.704Z,29.60
2022-08-02T18:36:37.051Z,29.50
2022-08-02T18:39:15.496Z,29.50
2022-08-02T18:41:44.343Z,29.40
2022-08-02T18:44:19.191Z,29.30
2022-08-02T18:46:46.879Z,29.20
2022-08-02T18:49:19.264Z,29.20
2022-08-02T18:51:46.584Z,29.00
2022-08-02T18:54:16.245Z,29.00
2022-08-02T18:56:54.334Z,29.00
2022-08-02T18:59:22.133Z,29.00
2022-08-02T19:01:51.544Z,29.00
2022-08-02T19:04:27.029Z,29.00
2022-08-02T19:06:56.228Z,29.00
2022-08-02T19:09:23.964Z,29.10
2022-08-02T19:11:53.368Z,29.20
2022-08-02T19:14:27.379Z,29.20
2022-08-02T19:17:00.437Z,29.10
2022-08-02T19:19:44.210Z,29.00
2022-08-02T19:22:16.035Z,29.00
2022-08-02T19:24:45.948Z,28.90
2022-08-02T19:27:19.672Z,28.90
2022-08-02T19:29:53.776Z,28.70
2022-08-02T19:32:42.721Z,28.70
2022-08-02T19:35:15.267Z,28.70
2022-08-02T19:38:05.361Z,28.70
2022-08-02T19:40:33.244Z,28.50
2022-08-02T19:44:26.775Z,28.60
2022-08-02T19:45:49.816Z,28.50
2022-08-02T19:48:24.194Z,28.50
2022-08-02T19:51:00.483Z,28.50
2022-08-02T19:53:47.580Z,28.40
2022-08-02T19:56:21.184Z,28.30
2022-08-02T19:58:54.090Z,28.30
2022-08-02T20:01:36.620Z,28.20
2022-08-02T20:04:07.697Z,28.10
2022-08-02T20:06:45.062Z,28.00
2022-08-02T20:09:21.301Z,27.90
2022-08-02T20:11:54.393Z,27.80
2022-08-02T20:14:38.121Z,27.80
2022-08-02T20:17:11.273Z,27.70
2022-08-02T20:19:39.103Z,27.70
2022-08-02T20:22:08.959Z,27.70
2022-08-02T20:24:39.389Z,27.70
2022-08-02T20:27:07.436Z,27.60
2022-08-02T20:29:43.099Z,27.50
2022-08-02T20:32:14.647Z,27.50
2022-08-02T20:34:42.256Z,27.40
2022-08-02T20:38:00.303Z,27.30
2022-08-02T20:39:56.760Z,27.30
2022-08-02T20:42:24.793Z,27.20
2022-08-02T20:44:55.973Z,27.20
2022-08-02T20:47:27.551Z,27.10
2022-08-02T20:50:17.124Z,27.10
2022-08-02T20:52:47.895Z,27.00
2022-08-02T20:55:17.006Z,26.90
2022-08-02T20:58:00.597Z,26.80
2022-08-02T21:00:29.681Z,26.80
2022-08-02T21:02:58.244Z,26.60
2022-08-02T21:05:43.488Z,26.60
2022-08-02T21:08:15.681Z,26.60
2022-08-02T21:10:52.146Z,26.40
2022-08-02T21:13:24.354Z,26.40
2022-08-02T21:15:56.945Z,26.30
2022-08-02T21:18:36.887Z,26.30
2022-08-02T21:21:10.697Z,26.20
2022-08-02T21:23:48.977Z,26.10
2022-08-02T21:26:27.813Z,26.00
2022-08-02T21:29:00.663Z,26.10
2022-08-02T21:31:32.063Z,26.10
2022-08-02T21:34:01.647Z,26.10
2022-08-02T21:36:32.766Z,26.10
2022-08-02T21:39:04.735Z,26.10
2022-08-02T21:41:46.640Z,26.10
2022-08-02T21:44:16.825Z,25.90
2022-08-02T21:46:51.980Z,25.70
2022-08-02T21:49:26.966Z,25.80
2022-08-02T21:51:54.994Z,25.80
2022-08-02T21:54:23.141Z,25.80
2022-08-02T21:56:53.093Z,25.90
2022-08-02T21:59:25.261Z,25.80
2022-08-02T22:01:59.392Z,25.70
2022-08-02T22:04:26.889Z,25.60
2022-08-02T22:06:57.549Z,25.60
2022-08-02T22:09:44.649Z,25.60
2022-08-02T22:12:18.301Z,25.50
2022-08-02T22:14:53.806Z,25.40
2022-08-02T22:17:51.490Z,25.40
2022-08-02T22:20:19.686Z,25.30
2022-08-02T22:22:50.077Z,25.30
2022-08-02T22:25:36.750Z,25.10
2022-08-02T22:28:38.341Z,25.00
2022-08-02T22:31:04.801Z,25.00
2022-08-02T22:34:00.270Z,25.10
2022-08-02T22:36:30.720Z,25.10
2022-08-02T22:38:59.190Z,24.90
2022-08-02T22:42:01.153Z,24.70
2022-08-02T22:44:18.465Z,24.50
2022-08-02T22:46:46.899Z,24.50
2022-08-02T22:49:38.901Z,24.50
2022-08-02T22:52:05.632Z,24.50
2022-08-02T22:54:33.029Z,24.50
2022-08-02T22:57:03.316Z,24.60
2022-08-02T22:58:58.831Z,29.60
2022-08-02T22:59:39.414Z,24.60
2022-08-02T23:02:08.209Z,24.60
2022-08-02T23:04:36.670Z,24.50
2022-08-02T23:07:04.840Z,24.40
2022-08-02T23:09:32.265Z,24.50
2022-08-02T23:11:59.633Z,24.50
2022-08-02T23:14:26.972Z,24.40
2022-08-02T23:17:12.677Z,24.20
2022-08-02T23:19:52.122Z,24.30
2022-08-02T23:22:29.441Z,24.20
2022-08-02T23:25:01.010Z,24.20
2022-08-02T23:27:29.345Z,24.10
2022-08-02T23:29:56.756Z,24.10
2022-08-02T23:32:25.699Z,24.10
2022-08-02T23:34:56.593Z,24.00
2022-08-02T23:37:25.158Z,23.90
2022-08-02T23:39:52.539Z,23.90
2022-08-02T23:42:25.120Z,23.90
2022-08-02T23:44:53.416Z,23.90
2022-08-02T23:47:23.202Z,23.80
2022-08-02T23:49:54.947Z,23.80
2022-08-02T23:52:24.895Z,23.70
2022-08-02T23:54:52.658Z,23.70
2022-08-02T23:57:21.600Z,23.80
2022-08-02T23:59:51.311Z,23.90
